sensor_id;sensor_type;location;lat;lon;timestamp;P1;durP1;ratioP1;P2;durP2;ratioP2
19687;SDS011;9993;52.008;4.732;2023-02-11T00:02:11;14.17;;;5.17;;
19687;SDS011;9993;52.008;4.732;2023-02-11T00:04:36;9.20;;;3.60;;
19687;SDS011;9993;52.008;4.732;2023-02-11T00:07:02;17.07;;;4.83;;
19687;SDS011;9993;52.008;4.732;2023-02-11T00:09:27;12.60;;;4.47;;
19687;SDS011;9993;52.008;4.732;2023-02-11T00:11:52;16.93;;;4.03;;
19687;SDS011;9993;52.008;4.732;2023-02-11T00:14:17;12.13;;;3.77;;
19687;SDS011;9993;52.008;4.732;2023-02-11T00:16:42;12.57;;;4.40;;
19687;SDS011;9993;52.008;4.732;2023-02-11T00:19:08;12.37;;;4.43;;
19687;SDS011;9993;52.008;4.732;2023-02-11T00:21:33;10.63;;;4.03;;
19687;SDS011;9993;52.008;4.732;2023-02-11T00:23:59;12.60;;;4.17;;
19687;SDS011;9993;52.008;4.732;2023-02-11T00:26:27;14.67;;;3.60;;
19687;SDS011;9993;52.008;4.732;2023-02-11T00:28:52;15.17;;;4.73;;
19687;SDS011;9993;52.008;4.732;2023-02-11T00:31:19;8.97;;;3.83;;
19687;SDS011;9993;52.008;4.732;2023-02-11T00:33:45;15.30;;;4.27;;
19687;SDS011;9993;52.008;4.732;2023-02-11T00:36:15;18.23;;;4.67;;
19687;SDS011;9993;52.008;4.732;2023-02-11T00:38:44;14.97;;;3.80;;
19687;SDS011;9993;52.008;4.732;2023-02-11T00:41:10;14.97;;;4.33;;
19687;SDS011;9993;52.008;4.732;2023-02-11T00:43:36;12.70;;;4.37;;
19687;SDS011;9993;52.008;4.732;2023-02-11T00:46:01;15.17;;;4.47;;
19687;SDS011;9993;52.008;4.732;2023-02-11T00:48:26;10.40;;;3.73;;
19687;SDS011;9993;52.008;4.732;2023-02-11T00:50:51;15.33;;;4.17;;
19687;SDS011;9993;52.008;4.732;2023-02-11T00:53:16;7.43;;;3.90;;
19687;SDS011;9993;52.008;4.732;2023-02-11T00:55:42;13.00;;;4.30;;
19687;SDS011;9993;52.008;4.732;2023-02-11T00:58:07;17.73;;;4.30;;
19687;SDS011;9993;52.008;4.732;2023-02-11T01:00:32;10.87;;;4.50;;
19687;SDS011;9993;52.008;4.732;2023-02-11T01:02:57;15.87;;;4.83;;
19687;SDS011;9993;52.008;4.732;2023-02-11T01:05:22;11.83;;;4.77;;
19687;SDS011;9993;52.008;4.732;2023-02-11T01:07:48;16.63;;;4.97;;
19687;SDS011;9993;52.008;4.732;2023-02-11T01:10:13;14.70;;;4.70;;
19687;SDS011;9993;52.008;4.732;2023-02-11T01:12:38;9.23;;;4.13;;
19687;SDS011;9993;52.008;4.732;2023-02-11T01:15:04;11.00;;;4.47;;
19687;SDS011;9993;52.008;4.732;2023-02-11T01:17:30;9.97;;;3.77;;
19687;SDS011;9993;52.008;4.732;2023-02-11T01:19:55;8.30;;;4.00;;
19687;SDS011;9993;52.008;4.732;2023-02-11T01:22:20;14.63;;;4.73;;
19687;SDS011;9993;52.008;4.732;2023-02-11T01:24:46;16.30;;;5.03;;
19687;SDS011;9993;52.008;4.732;2023-02-11T01:27:11;9.97;;;4.60;;
19687;SDS011;9993;52.008;4.732;2023-02-11T01:29:36;15.73;;;4.53;;
19687;SDS011;9993;52.008;4.732;2023-02-11T01:32:01;12.70;;;4.40;;
19687;SDS011;9993;52.008;4.732;2023-02-11T01:34:27;15.03;;;4.77;;
19687;SDS011;9993;52.008;4.732;2023-02-11T01:36:56;22.37;;;4.93;;
19687;SDS011;9993;52.008;4.732;2023-02-11T01:39:21;9.83;;;3.90;;
19687;SDS011;9993;52.008;4.732;2023-02-11T01:41:46;13.50;;;4.90;;
19687;SDS011;9993;52.008;4.732;2023-02-11T01:44:22;12.87;;;4.40;;
19687;SDS011;9993;52.008;4.732;2023-02-11T01:46:47;15.80;;;5.17;;
19687;SDS011;9993;52.008;4.732;2023-02-11T01:49:17;13.03;;;4.73;;
19687;SDS011;9993;52.008;4.732;2023-02-11T01:51:45;16.67;;;3.97;;
19687;SDS011;9993;52.008;4.732;2023-02-11T01:54:14;10.63;;;4.60;;
19687;SDS011;9993;52.008;4.732;2023-02-11T01:56:59;18.47;;;4.63;;
19687;SDS011;9993;52.008;4.732;2023-02-11T02:02:33;8.63;;;4.23;;
19687;SDS011;9993;52.008;4.732;2023-02-11T02:05:07;10.20;;;4.57;;
19687;SDS011;9993;52.008;4.732;2023-02-11T02:07:35;10.37;;;4.87;;
19687;SDS011;9993;52.008;4.732;2023-02-11T02:10:04;13.87;;;5.20;;
19687;SDS011;9993;52.008;4.732;2023-02-11T02:12:31;18.60;;;4.83;;
19687;SDS011;9993;52.008;4.732;2023-02-11T02:17:43;14.40;;;4.87;;
19687;SDS011;9993;52.008;4.732;2023-02-11T02:28:23;13.53;;;5.10;;
19687;SDS011;9993;52.008;4.732;2023-02-11T02:37:52;19.63;;;5.27;;
19687;SDS011;9993;52.008;4.732;2023-02-11T02:40:20;15.70;;;5.33;;
19687;SDS011;9993;52.008;4.732;2023-02-11T02:42:47;12.30;;;5.03;;
19687;SDS011;9993;52.008;4.732;2023-02-11T02:45:13;10.53;;;4.77;;
19687;SDS011;9993;52.008;4.732;2023-02-11T02:47:39;14.80;;;5.50;;
19687;SDS011;9993;52.008;4.732;2023-02-11T02:50:04;25.80;;;4.80;;
19687;SDS011;9993;52.008;4.732;2023-02-11T02:55:11;13.70;;;5.43;;
19687;SDS011;9993;52.008;4.732;2023-02-11T03:00:18;14.37;;;5.50;;
19687;SDS011;9993;52.008;4.732;2023-02-11T03:02:55;9.70;;;4.60;;
19687;SDS011;9993;52.008;4.732;2023-02-11T03:08:01;15.23;;;5.00;;
19687;SDS011;9993;52.008;4.732;2023-02-11T03:10:33;17.43;;;5.57;;
19687;SDS011;9993;52.008;4.732;2023-02-11T03:12:59;16.50;;;5.70;;
19687;SDS011;9993;52.008;4.732;2023-02-11T03:15:26;11.93;;;4.97;;
19687;SDS011;9993;52.008;4.732;2023-02-11T03:17:52;10.57;;;4.33;;
19687;SDS011;9993;52.008;4.732;2023-02-11T03:20:18;13.80;;;5.40;;
19687;SDS011;9993;52.008;4.732;2023-02-11T03:22:47;18.90;;;5.37;;
19687;SDS011;9993;52.008;4.732;2023-02-11T03:25:12;13.60;;;5.47;;
19687;SDS011;9993;52.008;4.732;2023-02-11T03:30:40;14.47;;;5.27;;
19687;SDS011;9993;52.008;4.732;2023-02-11T03:33:15;12.30;;;5.60;;
19687;SDS011;9993;52.008;4.732;2023-02-11T03:35:47;20.90;;;6.37;;
19687;SDS011;9993;52.008;4.732;2023-02-11T03:38:19;14.30;;;5.70;;
19687;SDS011;9993;52.008;4.732;2023-02-11T03:40:45;18.60;;;6.63;;
19687;SDS011;9993;52.008;4.732;2023-02-11T03:43:12;17.63;;;6.87;;
19687;SDS011;9993;52.008;4.732;2023-02-11T03:45:41;19.80;;;6.30;;
19687;SDS011;9993;52.008;4.732;2023-02-11T03:48:17;14.87;;;6.23;;
19687;SDS011;9993;52.008;4.732;2023-02-11T03:50:44;14.47;;;6.03;;
19687;SDS011;9993;52.008;4.732;2023-02-11T03:53:10;15.43;;;6.30;;
19687;SDS011;9993;52.008;4.732;2023-02-11T03:55:37;16.87;;;6.97;;
19687;SDS011;9993;52.008;4.732;2023-02-11T03:58:03;18.93;;;6.47;;
19687;SDS011;9993;52.008;4.732;2023-02-11T04:00:33;18.70;;;7.40;;
19687;SDS011;9993;52.008;4.732;2023-02-11T04:02:58;26.10;;;6.80;;
19687;SDS011;9993;52.008;4.732;2023-02-11T04:05:24;19.90;;;7.30;;
19687;SDS011;9993;52.008;4.732;2023-02-11T04:07:49;18.43;;;7.33;;
19687;SDS011;9993;52.008;4.732;2023-02-11T04:10:14;21.37;;;7.80;;
19687;SDS011;9993;52.008;4.732;2023-02-11T04:12:39;18.93;;;8.17;;
19687;SDS011;9993;52.008;4.732;2023-02-11T04:15:05;21.27;;;7.23;;
19687;SDS011;9993;52.008;4.732;2023-02-11T04:17:30;18.43;;;6.67;;
19687;SDS011;9993;52.008;4.732;2023-02-11T04:19:55;20.10;;;7.60;;
19687;SDS011;9993;52.008;4.732;2023-02-11T04:22:21;14.07;;;7.43;;
19687;SDS011;9993;52.008;4.732;2023-02-11T04:24:46;19.43;;;7.27;;
19687;SDS011;9993;52.008;4.732;2023-02-11T04:27:11;17.43;;;7.40;;
19687;SDS011;9993;52.008;4.732;2023-02-11T04:29:36;17.23;;;6.87;;
19687;SDS011;9993;52.008;4.732;2023-02-11T04:32:02;21.03;;;7.70;;
19687;SDS011;9993;52.008;4.732;2023-02-11T04:34:27;22.13;;;7.53;;
19687;SDS011;9993;52.008;4.732;2023-02-11T04:36:52;13.17;;;6.67;;
19687;SDS011;9993;52.008;4.732;2023-02-11T04:39:17;25.17;;;8.20;;
19687;SDS011;9993;52.008;4.732;2023-02-11T04:41:43;14.83;;;7.60;;
19687;SDS011;9993;52.008;4.732;2023-02-11T04:44:08;18.20;;;8.30;;
19687;SDS011;9993;52.008;4.732;2023-02-11T04:46:33;20.00;;;7.90;;
19687;SDS011;9993;52.008;4.732;2023-02-11T04:48:58;20.50;;;8.00;;
19687;SDS011;9993;52.008;4.732;2023-02-11T04:51:24;22.17;;;8.40;;
19687;SDS011;9993;52.008;4.732;2023-02-11T04:53:49;19.47;;;7.67;;
19687;SDS011;9993;52.008;4.732;2023-02-11T04:56:14;23.67;;;8.03;;
19687;SDS011;9993;52.008;4.732;2023-02-11T04:58:39;17.37;;;7.60;;
19687;SDS011;9993;52.008;4.732;2023-02-11T05:01:14;17.33;;;7.83;;
19687;SDS011;9993;52.008;4.732;2023-02-11T05:03:40;14.77;;;8.10;;
19687;SDS011;9993;52.008;4.732;2023-02-11T05:06:05;23.13;;;8.70;;
19687;SDS011;9993;52.008;4.732;2023-02-11T05:08:31;24.17;;;8.20;;
19687;SDS011;9993;52.008;4.732;2023-02-11T05:10:56;21.30;;;9.10;;
19687;SDS011;9993;52.008;4.732;2023-02-11T05:13:22;18.93;;;8.93;;
19687;SDS011;9993;52.008;4.732;2023-02-11T05:15:47;32.63;;;9.60;;
19687;SDS011;9993;52.008;4.732;2023-02-11T05:18:12;23.93;;;10.07;;
19687;SDS011;9993;52.008;4.732;2023-02-11T05:20:39;21.33;;;9.00;;
19687;SDS011;9993;52.008;4.732;2023-02-11T05:23:04;26.73;;;9.30;;
19687;SDS011;9993;52.008;4.732;2023-02-11T05:25:29;21.23;;;9.40;;
19687;SDS011;9993;52.008;4.732;2023-02-11T05:27:54;21.00;;;9.00;;
19687;SDS011;9993;52.008;4.732;2023-02-11T05:30:20;20.33;;;8.20;;
19687;SDS011;9993;52.008;4.732;2023-02-11T05:32:45;22.27;;;9.27;;
19687;SDS011;9993;52.008;4.732;2023-02-11T05:35:10;18.33;;;9.30;;
19687;SDS011;9993;52.008;4.732;2023-02-11T05:37:35;20.63;;;8.90;;
19687;SDS011;9993;52.008;4.732;2023-02-11T05:40:01;22.27;;;9.03;;
19687;SDS011;9993;52.008;4.732;2023-02-11T05:42:26;27.80;;;10.43;;
19687;SDS011;9993;52.008;4.732;2023-02-11T05:44:51;21.17;;;9.63;;
19687;SDS011;9993;52.008;4.732;2023-02-11T05:47:16;20.10;;;9.70;;
19687;SDS011;9993;52.008;4.732;2023-02-11T05:49:41;24.00;;;8.87;;
19687;SDS011;9993;52.008;4.732;2023-02-11T05:52:06;27.60;;;11.50;;
19687;SDS011;9993;52.008;4.732;2023-02-11T05:54:32;26.00;;;11.60;;
19687;SDS011;9993;52.008;4.732;2023-02-11T05:56:57;23.17;;;10.80;;
19687;SDS011;9993;52.008;4.732;2023-02-11T05:59:22;31.00;;;10.97;;
19687;SDS011;9993;52.008;4.732;2023-02-11T06:01:47;23.63;;;12.07;;
19687;SDS011;9993;52.008;4.732;2023-02-11T06:04:12;30.83;;;12.90;;
19687;SDS011;9993;52.008;4.732;2023-02-11T06:06:38;28.67;;;11.33;;
19687;SDS011;9993;52.008;4.732;2023-02-11T06:09:03;24.13;;;11.50;;
19687;SDS011;9993;52.008;4.732;2023-02-11T06:11:28;27.00;;;11.97;;
19687;SDS011;9993;52.008;4.732;2023-02-11T06:13:53;23.80;;;11.30;;
19687;SDS011;9993;52.008;4.732;2023-02-11T06:16:18;30.77;;;11.93;;
19687;SDS011;9993;52.008;4.732;2023-02-11T06:18:44;28.73;;;11.53;;
19687;SDS011;9993;52.008;4.732;2023-02-11T06:21:09;27.83;;;11.43;;
19687;SDS011;9993;52.008;4.732;2023-02-11T06:23:35;28.27;;;12.63;;
19687;SDS011;9993;52.008;4.732;2023-02-11T06:26:04;32.63;;;12.93;;
19687;SDS011;9993;52.008;4.732;2023-02-11T06:28:30;25.10;;;12.80;;
19687;SDS011;9993;52.008;4.732;2023-02-11T06:30:55;31.60;;;13.63;;
19687;SDS011;9993;52.008;4.732;2023-02-11T06:33:20;33.03;;;12.60;;
19687;SDS011;9993;52.008;4.732;2023-02-11T06:35:46;29.50;;;12.00;;
19687;SDS011;9993;52.008;4.732;2023-02-11T06:38:11;31.87;;;11.90;;
19687;SDS011;9993;52.008;4.732;2023-02-11T06:40:36;29.23;;;11.93;;
19687;SDS011;9993;52.008;4.732;2023-02-11T06:43:01;25.77;;;12.53;;
19687;SDS011;9993;52.008;4.732;2023-02-11T06:45:26;35.77;;;14.13;;
19687;SDS011;9993;52.008;4.732;2023-02-11T06:47:52;31.77;;;14.27;;
19687;SDS011;9993;52.008;4.732;2023-02-11T06:50:17;34.43;;;13.67;;
19687;SDS011;9993;52.008;4.732;2023-02-11T06:52:42;36.27;;;14.07;;
19687;SDS011;9993;52.008;4.732;2023-02-11T06:55:08;31.40;;;12.83;;
19687;SDS011;9993;52.008;4.732;2023-02-11T06:57:34;27.60;;;12.53;;
19687;SDS011;9993;52.008;4.732;2023-02-11T06:59:59;34.70;;;13.50;;
19687;SDS011;9993;52.008;4.732;2023-02-11T07:02:24;38.00;;;14.43;;
19687;SDS011;9993;52.008;4.732;2023-02-11T07:04:49;38.17;;;14.20;;
19687;SDS011;9993;52.008;4.732;2023-02-11T07:07:14;42.40;;;15.73;;
19687;SDS011;9993;52.008;4.732;2023-02-11T07:09:40;31.17;;;14.17;;
19687;SDS011;9993;52.008;4.732;2023-02-11T07:12:05;35.50;;;14.57;;
19687;SDS011;9993;52.008;4.732;2023-02-11T07:14:30;37.07;;;15.83;;
19687;SDS011;9993;52.008;4.732;2023-02-11T07:16:55;37.07;;;15.27;;
19687;SDS011;9993;52.008;4.732;2023-02-11T07:19:21;44.73;;;15.50;;
19687;SDS011;9993;52.008;4.732;2023-02-11T07:21:46;35.03;;;16.13;;
19687;SDS011;9993;52.008;4.732;2023-02-11T07:24:12;29.40;;;14.80;;
19687;SDS011;9993;52.008;4.732;2023-02-11T07:26:37;32.23;;;16.67;;
19687;SDS011;9993;52.008;4.732;2023-02-11T07:29:03;36.83;;;15.80;;
19687;SDS011;9993;52.008;4.732;2023-02-11T07:31:29;44.07;;;15.43;;
19687;SDS011;9993;52.008;4.732;2023-02-11T07:33:55;36.63;;;15.43;;
19687;SDS011;9993;52.008;4.732;2023-02-11T07:36:21;41.80;;;15.47;;
19687;SDS011;9993;52.008;4.732;2023-02-11T07:38:46;35.27;;;15.63;;
19687;SDS011;9993;52.008;4.732;2023-02-11T07:41:13;32.87;;;15.03;;
19687;SDS011;9993;52.008;4.732;2023-02-11T07:43:39;33.60;;;16.40;;
19687;SDS011;9993;52.008;4.732;2023-02-11T07:46:05;33.70;;;15.43;;
19687;SDS011;9993;52.008;4.732;2023-02-11T07:48:30;34.47;;;15.57;;
19687;SDS011;9993;52.008;4.732;2023-02-11T07:51:03;38.90;;;16.13;;
19687;SDS011;9993;52.008;4.732;2023-02-11T07:53:28;36.97;;;15.57;;
19687;SDS011;9993;52.008;4.732;2023-02-11T07:55:53;33.77;;;16.40;;
19687;SDS011;9993;52.008;4.732;2023-02-11T07:58:19;34.03;;;16.73;;
19687;SDS011;9993;52.008;4.732;2023-02-11T08:00:44;38.87;;;16.93;;
19687;SDS011;9993;52.008;4.732;2023-02-11T08:03:09;35.83;;;16.43;;
19687;SDS011;9993;52.008;4.732;2023-02-11T08:05:36;31.40;;;17.17;;
19687;SDS011;9993;52.008;4.732;2023-02-11T08:08:01;45.73;;;16.93;;
19687;SDS011;9993;52.008;4.732;2023-02-11T08:10:26;36.83;;;15.00;;
19687;SDS011;9993;52.008;4.732;2023-02-11T08:12:52;32.63;;;16.77;;
19687;SDS011;9993;52.008;4.732;2023-02-11T08:15:19;33.23;;;16.27;;
19687;SDS011;9993;52.008;4.732;2023-02-11T08:17:44;37.20;;;17.13;;
19687;SDS011;9993;52.008;4.732;2023-02-11T08:20:09;34.13;;;16.43;;
19687;SDS011;9993;52.008;4.732;2023-02-11T08:22:34;37.03;;;17.67;;
19687;SDS011;9993;52.008;4.732;2023-02-11T08:25:00;37.17;;;17.73;;
19687;SDS011;9993;52.008;4.732;2023-02-11T08:27:25;36.07;;;16.97;;
19687;SDS011;9993;52.008;4.732;2023-02-11T08:29:51;39.13;;;18.00;;
19687;SDS011;9993;52.008;4.732;2023-02-11T08:32:16;37.57;;;18.40;;
19687;SDS011;9993;52.008;4.732;2023-02-11T08:34:41;39.87;;;17.57;;
19687;SDS011;9993;52.008;4.732;2023-02-11T08:37:07;38.10;;;18.17;;
19687;SDS011;9993;52.008;4.732;2023-02-11T08:39:33;39.47;;;16.53;;
19687;SDS011;9993;52.008;4.732;2023-02-11T08:41:58;38.20;;;17.27;;
19687;SDS011;9993;52.008;4.732;2023-02-11T08:44:23;40.57;;;17.60;;
19687;SDS011;9993;52.008;4.732;2023-02-11T08:46:49;37.37;;;18.83;;
19687;SDS011;9993;52.008;4.732;2023-02-11T08:49:14;36.43;;;17.90;;
19687;SDS011;9993;52.008;4.732;2023-02-11T08:51:40;40.97;;;19.83;;
19687;SDS011;9993;52.008;4.732;2023-02-11T08:54:05;35.87;;;17.83;;
19687;SDS011;9993;52.008;4.732;2023-02-11T08:56:33;36.60;;;19.43;;
19687;SDS011;9993;52.008;4.732;2023-02-11T08:58:58;38.37;;;18.63;;
19687;SDS011;9993;52.008;4.732;2023-02-11T09:01:25;38.70;;;18.87;;
19687;SDS011;9993;52.008;4.732;2023-02-11T09:03:50;41.67;;;19.67;;
19687;SDS011;9993;52.008;4.732;2023-02-11T09:06:16;37.43;;;20.30;;
19687;SDS011;9993;52.008;4.732;2023-02-11T09:08:45;38.17;;;20.40;;
19687;SDS011;9993;52.008;4.732;2023-02-11T09:11:11;43.87;;;20.40;;
19687;SDS011;9993;52.008;4.732;2023-02-11T09:13:36;38.17;;;19.43;;
19687;SDS011;9993;52.008;4.732;2023-02-11T09:16:02;40.77;;;18.07;;
19687;SDS011;9993;52.008;4.732;2023-02-11T09:18:27;43.17;;;19.13;;
19687;SDS011;9993;52.008;4.732;2023-02-11T09:20:53;35.60;;;19.00;;
19687;SDS011;9993;52.008;4.732;2023-02-11T09:23:18;39.13;;;17.40;;
19687;SDS011;9993;52.008;4.732;2023-02-11T09:25:43;44.87;;;20.87;;
19687;SDS011;9993;52.008;4.732;2023-02-11T09:28:08;35.43;;;18.60;;
19687;SDS011;9993;52.008;4.732;2023-02-11T09:30:35;40.13;;;19.27;;
19687;SDS011;9993;52.008;4.732;2023-02-11T09:33:00;36.93;;;18.37;;
19687;SDS011;9993;52.008;4.732;2023-02-11T09:35:26;38.70;;;17.80;;
19687;SDS011;9993;52.008;4.732;2023-02-11T09:37:51;35.97;;;18.03;;
19687;SDS011;9993;52.008;4.732;2023-02-11T09:40:16;35.13;;;17.60;;
19687;SDS011;9993;52.008;4.732;2023-02-11T09:42:56;35.33;;;17.00;;
19687;SDS011;9993;52.008;4.732;2023-02-11T09:45:25;30.70;;;16.93;;
19687;SDS011;9993;52.008;4.732;2023-02-11T09:47:55;35.80;;;19.03;;
19687;SDS011;9993;52.008;4.732;2023-02-11T09:50:21;34.83;;;17.60;;
19687;SDS011;9993;52.008;4.732;2023-02-11T09:52:58;31.23;;;16.80;;
19687;SDS011;9993;52.008;4.732;2023-02-11T09:55:26;32.97;;;16.97;;
19687;SDS011;9993;52.008;4.732;2023-02-11T09:57:51;33.97;;;18.13;;
19687;SDS011;9993;52.008;4.732;2023-02-11T10:00:27;31.40;;;16.93;;
19687;SDS011;9993;52.008;4.732;2023-02-11T10:11:03;29.93;;;17.40;;
19687;SDS011;9993;52.008;4.732;2023-02-11T10:13:49;26.63;;;13.77;;
19687;SDS011;9993;52.008;4.732;2023-02-11T10:21:23;22.07;;;12.73;;
19687;SDS011;9993;52.008;4.732;2023-02-11T10:23:53;25.47;;;13.83;;
19687;SDS011;9993;52.008;4.732;2023-02-11T10:26:19;23.73;;;14.53;;
19687;SDS011;9993;52.008;4.732;2023-02-11T10:28:46;21.13;;;12.57;;
19687;SDS011;9993;52.008;4.732;2023-02-11T10:31:16;21.73;;;13.37;;
19687;SDS011;9993;52.008;4.732;2023-02-11T10:33:43;20.53;;;12.93;;
19687;SDS011;9993;52.008;4.732;2023-02-11T10:36:10;20.90;;;11.90;;
19687;SDS011;9993;52.008;4.732;2023-02-11T10:38:36;19.97;;;11.10;;
19687;SDS011;9993;52.008;4.732;2023-02-11T10:41:01;17.30;;;10.63;;
19687;SDS011;9993;52.008;4.732;2023-02-11T10:43:27;16.30;;;10.37;;
19687;SDS011;9993;52.008;4.732;2023-02-11T10:45:54;16.03;;;10.80;;
19687;SDS011;9993;52.008;4.732;2023-02-11T10:53:46;16.77;;;10.07;;
19687;SDS011;9993;52.008;4.732;2023-02-11T10:56:18;22.37;;;10.83;;
19687;SDS011;9993;52.008;4.732;2023-02-11T10:58:45;15.70;;;11.07;;
19687;SDS011;9993;52.008;4.732;2023-02-11T11:01:17;19.50;;;10.60;;
19687;SDS011;9993;52.008;4.732;2023-02-11T11:03:47;14.03;;;9.90;;
19687;SDS011;9993;52.008;4.732;2023-02-11T11:06:13;11.70;;;9.20;;
19687;SDS011;9993;52.008;4.732;2023-02-11T11:11:05;14.03;;;8.10;;
19687;SDS011;9993;52.008;4.732;2023-02-11T11:13:35;10.93;;;7.73;;
19687;SDS011;9993;52.008;4.732;2023-02-11T11:16:20;13.70;;;7.87;;
19687;SDS011;9993;52.008;4.732;2023-02-11T11:18:46;10.17;;;7.97;;
19687;SDS011;9993;52.008;4.732;2023-02-11T11:21:13;11.47;;;8.03;;
19687;SDS011;9993;52.008;4.732;2023-02-11T11:23:47;10.07;;;8.57;;
19687;SDS011;9993;52.008;4.732;2023-02-11T11:32:02;13.03;;;7.30;;
19687;SDS011;9993;52.008;4.732;2023-02-11T11:34:36;11.20;;;7.77;;
19687;SDS011;9993;52.008;4.732;2023-02-11T11:37:12;10.70;;;6.77;;
19687;SDS011;9993;52.008;4.732;2023-02-11T11:39:38;11.67;;;7.87;;
19687;SDS011;9993;52.008;4.732;2023-02-11T11:42:27;10.13;;;6.63;;
19687;SDS011;9993;52.008;4.732;2023-02-11T11:44:55;8.70;;;6.70;;
19687;SDS011;9993;52.008;4.732;2023-02-11T11:47:23;10.77;;;7.90;;
19687;SDS011;9993;52.008;4.732;2023-02-11T11:49:54;9.57;;;7.30;;
19687;SDS011;9993;52.008;4.732;2023-02-11T11:52:31;13.90;;;8.10;;
19687;SDS011;9993;52.008;4.732;2023-02-11T11:55:00;10.17;;;7.40;;
19687;SDS011;9993;52.008;4.732;2023-02-11T11:57:26;10.77;;;8.10;;
19687;SDS011;9993;52.008;4.732;2023-02-11T11:59:53;12.53;;;7.63;;
19687;SDS011;9993;52.008;4.732;2023-02-11T12:02:39;12.57;;;8.40;;
19687;SDS011;9993;52.008;4.732;2023-02-11T12:05:13;8.70;;;6.97;;
19687;SDS011;9993;52.008;4.732;2023-02-11T12:13:21;10.18;;;7.72;;
19687;SDS011;9993;52.008;4.732;2023-02-11T12:15:54;11.30;;;6.93;;
19687;SDS011;9993;52.008;4.732;2023-02-11T12:18:24;8.38;;;6.97;;
19687;SDS011;9993;52.008;4.732;2023-02-11T12:23:26;11.13;;;7.73;;
19687;SDS011;9993;52.008;4.732;2023-02-11T12:26:10;8.67;;;6.97;;
19687;SDS011;9993;52.008;4.732;2023-02-11T12:28:39;7.13;;;6.43;;
19687;SDS011;9993;52.008;4.732;2023-02-11T12:36:13;8.03;;;6.70;;
19687;SDS011;9993;52.008;4.732;2023-02-11T12:38:49;11.43;;;7.80;;
19687;SDS011;9993;52.008;4.732;2023-02-11T12:44:10;7.82;;;6.90;;
19687;SDS011;9993;52.008;4.732;2023-02-11T12:46:44;8.90;;;6.33;;
19687;SDS011;9993;52.008;4.732;2023-02-11T12:49:21;9.38;;;6.38;;
19687;SDS011;9993;52.008;4.732;2023-02-11T12:54:23;7.90;;;5.97;;
19687;SDS011;9993;52.008;4.732;2023-02-11T12:59:40;11.73;;;7.05;;
19687;SDS011;9993;52.008;4.732;2023-02-11T13:02:13;8.57;;;5.93;;
19687;SDS011;9993;52.008;4.732;2023-02-11T13:04:42;9.33;;;6.43;;
19687;SDS011;9993;52.008;4.732;2023-02-11T13:07:14;9.57;;;6.10;;
19687;SDS011;9993;52.008;4.732;2023-02-11T13:09:43;6.57;;;5.87;;
19687;SDS011;9993;52.008;4.732;2023-02-11T13:12:09;7.73;;;5.77;;
19687;SDS011;9993;52.008;4.732;2023-02-11T13:14:55;6.03;;;5.43;;
19687;SDS011;9993;52.008;4.732;2023-02-11T13:23:23;9.13;;;6.13;;
19687;SDS011;9993;52.008;4.732;2023-02-11T13:31:12;7.27;;;5.50;;
19687;SDS011;9993;52.008;4.732;2023-02-11T13:40:09;8.50;;;6.07;;
19687;SDS011;9993;52.008;4.732;2023-02-11T13:42:59;8.60;;;6.27;;
19687;SDS011;9993;52.008;4.732;2023-02-11T13:47:56;12.30;;;6.10;;
19687;SDS011;9993;52.008;4.732;2023-02-11T13:50:28;10.40;;;6.13;;
19687;SDS011;9993;52.008;4.732;2023-02-11T13:52:56;9.75;;;7.07;;
19687;SDS011;9993;52.008;4.732;2023-02-11T13:55:22;8.80;;;6.50;;
19687;SDS011;9993;52.008;4.732;2023-02-11T14:00:47;7.38;;;6.20;;
19687;SDS011;9993;52.008;4.732;2023-02-11T14:06:10;8.30;;;6.43;;
19687;SDS011;9993;52.008;4.732;2023-02-11T14:08:59;7.35;;;6.65;;
19687;SDS011;9993;52.008;4.732;2023-02-11T14:16:19;8.70;;;4.95;;
19687;SDS011;9993;52.008;4.732;2023-02-11T14:23:44;8.25;;;6.25;;
19687;SDS011;9993;52.008;4.732;2023-02-11T14:28:45;7.20;;;5.37;;
19687;SDS011;9993;52.008;4.732;2023-02-11T14:31:17;7.47;;;6.30;;
19687;SDS011;9993;52.008;4.732;2023-02-11T14:39:28;9.70;;;5.93;;
19687;SDS011;9993;52.008;4.732;2023-02-11T14:41:56;6.27;;;5.60;;
19687;SDS011;9993;52.008;4.732;2023-02-11T14:44:22;7.83;;;5.60;;
19687;SDS011;9993;52.008;4.732;2023-02-11T14:46:49;6.70;;;5.97;;
19687;SDS011;9993;52.008;4.732;2023-02-11T14:51:51;10.47;;;5.93;;
19687;SDS011;9993;52.008;4.732;2023-02-11T14:54:18;11.43;;;6.17;;
19687;SDS011;9993;52.008;4.732;2023-02-11T14:56:46;9.77;;;6.13;;
19687;SDS011;9993;52.008;4.732;2023-02-11T14:59:28;8.77;;;5.73;;
19687;SDS011;9993;52.008;4.732;2023-02-11T15:01:53;8.03;;;5.63;;
19687;SDS011;9993;52.008;4.732;2023-02-11T15:04:26;6.53;;;5.67;;
19687;SDS011;9993;52.008;4.732;2023-02-11T15:06:51;11.00;;;5.87;;
19687;SDS011;9993;52.008;4.732;2023-02-11T15:09:22;6.97;;;5.73;;
19687;SDS011;9993;52.008;4.732;2023-02-11T15:11:52;8.30;;;5.33;;
19687;SDS011;9993;52.008;4.732;2023-02-11T15:14:20;9.90;;;5.57;;
19687;SDS011;9993;52.008;4.732;2023-02-11T15:16:46;9.53;;;6.17;;
19687;SDS011;9993;52.008;4.732;2023-02-11T15:19:58;13.02;;;5.95;;
19687;SDS011;9993;52.008;4.732;2023-02-11T15:21:58;7.77;;;5.70;;
19687;SDS011;9993;52.008;4.732;2023-02-11T15:29:22;12.07;;;6.17;;
19687;SDS011;9993;52.008;4.732;2023-02-11T15:32:01;8.37;;;5.50;;
19687;SDS011;9993;52.008;4.732;2023-02-11T15:34:26;7.68;;;5.78;;
19687;SDS011;9993;52.008;4.732;2023-02-11T15:36:51;6.20;;;5.20;;
19687;SDS011;9993;52.008;4.732;2023-02-11T15:39:18;9.90;;;6.20;;
19687;SDS011;9993;52.008;4.732;2023-02-11T15:41:43;9.15;;;6.15;;
19687;SDS011;9993;52.008;4.732;2023-02-11T15:46:53;7.83;;;5.80;;
19687;SDS011;9993;52.008;4.732;2023-02-11T15:49:18;8.20;;;5.37;;
19687;SDS011;9993;52.008;4.732;2023-02-11T15:51:45;7.57;;;5.63;;
19687;SDS011;9993;52.008;4.732;2023-02-11T15:54:21;7.33;;;5.40;;
19687;SDS011;9993;52.008;4.732;2023-02-11T15:56:48;8.38;;;5.80;;
19687;SDS011;9993;52.008;4.732;2023-02-11T15:59:15;7.73;;;5.60;;
19687;SDS011;9993;52.008;4.732;2023-02-11T16:01:42;7.10;;;5.90;;
19687;SDS011;9993;52.008;4.732;2023-02-11T16:04:14;8.80;;;5.53;;
19687;SDS011;9993;52.008;4.732;2023-02-11T16:06:40;7.20;;;5.78;;
19687;SDS011;9993;52.008;4.732;2023-02-11T16:19:21;7.20;;;5.25;;
19687;SDS011;9993;52.008;4.732;2023-02-11T16:21:46;8.37;;;5.70;;
19687;SDS011;9993;52.008;4.732;2023-02-11T16:24:21;7.47;;;5.63;;
19687;SDS011;9993;52.008;4.732;2023-02-11T16:26:49;10.33;;;6.07;;
19687;SDS011;9993;52.008;4.732;2023-02-11T16:29:16;9.25;;;6.00;;
19687;SDS011;9993;52.008;4.732;2023-02-11T16:31:42;6.50;;;5.10;;
19687;SDS011;9993;52.008;4.732;2023-02-11T16:36:44;8.00;;;6.17;;
19687;SDS011;9993;52.008;4.732;2023-02-11T16:39:10;6.43;;;5.40;;
19687;SDS011;9993;52.008;4.732;2023-02-11T16:41:35;8.80;;;6.10;;
19687;SDS011;9993;52.008;4.732;2023-02-11T16:44:01;9.53;;;6.27;;
19687;SDS011;9993;52.008;4.732;2023-02-11T16:46:26;7.83;;;6.07;;
19687;SDS011;9993;52.008;4.732;2023-02-11T16:49:14;9.15;;;6.50;;
19687;SDS011;9993;52.008;4.732;2023-02-11T16:51:41;8.63;;;6.03;;
19687;SDS011;9993;52.008;4.732;2023-02-11T16:54:09;10.00;;;6.53;;
19687;SDS011;9993;52.008;4.732;2023-02-11T16:56:36;8.02;;;4.97;;
19687;SDS011;9993;52.008;4.732;2023-02-11T16:59:01;10.43;;;5.57;;
19687;SDS011;9993;52.008;4.732;2023-02-11T17:01:26;8.60;;;6.03;;
19687;SDS011;9993;52.008;4.732;2023-02-11T17:03:52;9.87;;;6.47;;
19687;SDS011;9993;52.008;4.732;2023-02-11T17:06:18;8.33;;;6.67;;
19687;SDS011;9993;52.008;4.732;2023-02-11T17:08:43;7.77;;;5.87;;
19687;SDS011;9993;52.008;4.732;2023-02-11T17:11:08;9.70;;;6.20;;
19687;SDS011;9993;52.008;4.732;2023-02-11T17:13:33;8.43;;;6.43;;
19687;SDS011;9993;52.008;4.732;2023-02-11T17:16:00;9.67;;;6.73;;